sensor_id;sensor_type;location;lat;lon;timestamp;pressure;altitude;pressure_sealevel;temperature;humidity
48077;BME280;33854;57.708;12.008;2023-05-25T00:01:04;98224.69;;;12.24;100.00
48077;BME280;33854;57.708;12.008;2023-05-25T00:03:30;98202.41;;;12.20;100.00
48077;BME280;33854;57.708;12.008;2023-05-25T00:05:55;98175.19;;;12.13;100.00
48077;BME280;33854;57.708;12.008;2023-05-25T00:08:22;98165.00;;;12.10;100.00
48077;BME280;33854;57.708;12.008;2023-05-25T00:10:48;98163.34;;;12.09;100.00
48077;BME280;33854;57.708;12.008;2023-05-25T00:13:13;98146.84;;;12.09;100.00
48077;BME280;33854;57.708;12.008;2023-05-25T00:15:39;98117.69;;;12.04;100.00
48077;BME280;33854;57.708;12.008;2023-05-25T00:18:04;98101.06;;;12.05;100.00
48077;BME280;33854;57.708;12.008;2023-05-25T00:20:30;98084.53;;;12.04;100.00
48077;BME280;33854;57.708;12.008;2023-05-25T00:22:57;98088.81;;;12.05;100.00
48077;BME280;33854;57.708;12.008;2023-05-25T00:25:23;98089.09;;;12.02;100.00
48077;BME280;33854;57.708;12.008;2023-05-25T00:27:48;98066.28;;;11.94;100.00
48077;BME280;33854;57.708;12.008;2023-05-25T00:30:14;98080.28;;;12.03;100.00
48077;BME280;33854;57.708;12.008;2023-05-25T00:32:40;98077.00;;;12.01;100.00
48077;BME280;33854;57.708;12.008;2023-05-25T00:35:05;98083.16;;;12.00;100.00
48077;BME280;33854;57.708;12.008;2023-05-25T00:37:32;98075.50;;;11.89;100.00
48077;BME280;33854;57.708;12.008;2023-05-25T00:39:57;98086.91;;;11.97;100.00
48077;BME280;33854;57.708;12.008;2023-05-25T00:42:23;98085.56;;;11.93;100.00
48077;BME280;33854;57.708;12.008;2023-05-25T00:44:49;98099.13;;;11.97;100.00
48077;BME280;33854;57.708;12.008;2023-05-25T00:47:15;98108.09;;;11.94;100.00
48077;BME280;33854;57.708;12.008;2023-05-25T00:49:41;98118.69;;;11.93;100.00
48077;BME280;33854;57.708;12.008;2023-05-25T00:52:07;98149.34;;;11.91;100.00
48077;BME280;33854;57.708;12.008;2023-05-25T00:54:35;98178.81;;;11.93;100.00
48077;BME280;33854;57.708;12.008;2023-05-25T00:57:03;98208.41;;;11.84;100.00
48077;BME280;33854;57.708;12.008;2023-05-25T00:59:32;98229.97;;;11.86;100.00
48077;BME280;33854;57.708;12.008;2023-05-25T01:02:07;98275.13;;;11.88;100.00
48077;BME280;33854;57.708;12.008;2023-05-25T01:04:52;98299.59;;;11.87;100.00
48077;BME280;33854;57.708;12.008;2023-05-25T01:07:22;98349.50;;;11.84;100.00
48077;BME280;33854;57.708;12.008;2023-05-25T01:10:00;98381.81;;;11.73;100.00
48077;BME280;33854;57.708;12.008;2023-05-25T01:12:28;98461.72;;;11.76;100.00
48077;BME280;33854;57.708;12.008;2023-05-25T01:14:54;98492.38;;;11.74;100.00
48077;BME280;33854;57.708;12.008;2023-05-25T01:17:20;98561.53;;;11.70;100.00
48077;BME280;33854;57.708;12.008;2023-05-25T01:19:45;98638.00;;;11.72;100.00
48077;BME280;33854;57.708;12.008;2023-05-25T01:22:31;98692.38;;;11.78;100.00
48077;BME280;33854;57.708;12.008;2023-05-25T01:25:23;98728.72;;;11.81;100.00
48077;BME280;33854;57.708;12.008;2023-05-25T01:28:10;98741.38;;;11.85;100.00
48077;BME280;33854;57.708;12.008;2023-05-25T01:30:35;98752.16;;;11.92;100.00
48077;BME280;33854;57.708;12.008;2023-05-25T01:33:03;98741.47;;;11.95;100.00
48077;BME280;33854;57.708;12.008;2023-05-25T01:35:30;98714.38;;;11.96;100.00
48077;BME280;33854;57.708;12.008;2023-05-25T01:37:57;98703.44;;;11.91;100.00
48077;BME280;33854;57.708;12.008;2023-05-25T01:40:22;98713.66;;;11.94;100.00
48077;BME280;33854;57.708;12.008;2023-05-25T01:42:47;98729.41;;;12.04;100.00
48077;BME280;33854;57.708;12.008;2023-05-25T01:45:13;98798.03;;;11.96;100.00
48077;BME280;33854;57.708;12.008;2023-05-25T01:47:49;98903.03;;;12.01;100.00
48077;BME280;33854;57.708;12.008;2023-05-25T01:53:13;99314.13;;;12.05;100.00
48077;BME280;33854;57.708;12.008;2023-05-25T01:55:56;99609.72;;;12.03;100.00
48077;BME280;33854;57.708;12.008;2023-05-25T01:58:24;99792.03;;;12.01;100.00
48077;BME280;33854;57.708;12.008;2023-05-25T02:00:51;99977.31;;;12.07;100.00
48077;BME280;33854;57.708;12.008;2023-05-25T02:03:17;100125.53;;;12.07;100.00
48077;BME280;33854;57.708;12.008;2023-05-25T02:05:44;100237.16;;;12.06;100.00
48077;BME280;33854;57.708;12.008;2023-05-25T02:08:10;100336.38;;;12.09;100.00
48077;BME280;33854;57.708;12.008;2023-05-25T02:10:35;100394.94;;;12.07;100.00
48077;BME280;33854;57.708;12.008;2023-05-25T02:13:01;100438.72;;;12.03;100.00
48077;BME280;33854;57.708;12.008;2023-05-25T02:15:31;100466.66;;;12.02;100.00
48077;BME280;33854;57.708;12.008;2023-05-25T02:17:57;100489.09;;;11.91;100.00
48077;BME280;33854;57.708;12.008;2023-05-25T02:20:24;100514.09;;;11.96;100.00
48077;BME280;33854;57.708;12.008;2023-05-25T02:22:50;100514.50;;;11.89;100.00
48077;BME280;33854;57.708;12.008;2023-05-25T02:25:16;100525.22;;;11.84;100.00
48077;BME280;33854;57.708;12.008;2023-05-25T02:27:42;100520.06;;;11.83;100.00
48077;BME280;33854;57.708;12.008;2023-05-25T02:30:07;100517.88;;;11.75;100.00
48077;BME280;33854;57.708;12.008;2023-05-25T02:32:33;100517.00;;;11.75;100.00
48077;BME280;33854;57.708;12.008;2023-05-25T02:34:59;100531.94;;;11.73;100.00
48077;BME280;33854;57.708;12.008;2023-05-25T02:37:25;100519.03;;;11.70;100.00
48077;BME280;33854;57.708;12.008;2023-05-25T02:39:50;100527.63;;;11.72;100.00
48077;BME280;33854;57.708;12.008;2023-05-25T02:42:16;100531.19;;;11.71;100.00
48077;BME280;33854;57.708;12.008;2023-05-25T02:44:42;100512.72;;;11.57;100.00
48077;BME280;33854;57.708;12.008;2023-05-25T02:47:16;100540.34;;;11.62;100.00
48077;BME280;33854;57.708;12.008;2023-05-25T02:49:43;100541.25;;;11.61;100.00
48077;BME280;33854;57.708;12.008;2023-05-25T02:52:08;100563.00;;;11.62;100.00
48077;BME280;33854;57.708;12.008;2023-05-25T02:54:34;100576.47;;;11.54;100.00
48077;BME280;33854;57.708;12.008;2023-05-25T02:57:00;100594.84;;;11.53;100.00
48077;BME280;33854;57.708;12.008;2023-05-25T02:59:27;100626.44;;;11.48;100.00
48077;BME280;33854;57.708;12.008;2023-05-25T03:01:53;100644.97;;;11.43;100.00
48077;BME280;33854;57.708;12.008;2023-05-25T03:04:18;100675.44;;;11.44;100.00
48077;BME280;33854;57.708;12.008;2023-05-25T03:06:44;100697.78;;;11.33;100.00
48077;BME280;33854;57.708;12.008;2023-05-25T03:09:09;100721.34;;;11.31;100.00
48077;BME280;33854;57.708;12.008;2023-05-25T03:11:35;100730.34;;;11.26;100.00
48077;BME280;33854;57.708;12.008;2023-05-25T03:14:00;100766.00;;;11.27;100.00
48077;BME280;33854;57.708;12.008;2023-05-25T03:16:25;100798.50;;;11.21;100.00
48077;BME280;33854;57.708;12.008;2023-05-25T03:18:51;100819.59;;;11.17;100.00
48077;BME280;33854;57.708;12.008;2023-05-25T03:21:17;100848.19;;;11.20;100.00
48077;BME280;33854;57.708;12.008;2023-05-25T03:23:42;100867.31;;;11.20;100.00
48077;BME280;33854;57.708;12.008;2023-05-25T03:26:07;100914.22;;;11.23;100.00
48077;BME280;33854;57.708;12.008;2023-05-25T03:28:33;100929.88;;;11.23;100.00
48077;BME280;33854;57.708;12.008;2023-05-25T03:30:58;100945.56;;;11.23;100.00
48077;BME280;33854;57.708;12.008;2023-05-25T03:33:24;100950.78;;;11.23;100.00
48077;BME280;33854;57.708;12.008;2023-05-25T03:35:49;100968.28;;;11.21;100.00
48077;BME280;33854;57.708;12.008;2023-05-25T03:38:15;100988.41;;;11.19;100.00
48077;BME280;33854;57.708;12.008;2023-05-25T03:40:40;100996.09;;;11.22;100.00
48077;BME280;33854;57.708;12.008;2023-05-25T03:43:06;101017.00;;;11.22;100.00
48077;BME280;33854;57.708;12.008;2023-05-25T03:45:31;101036.22;;;11.21;100.00
48077;BME280;33854;57.708;12.008;2023-05-25T03:47:57;101036.28;;;11.20;100.00
48077;BME280;33854;57.708;12.008;2023-05-25T03:50:22;101063.50;;;11.14;100.00
48077;BME280;33854;57.708;12.008;2023-05-25T03:52:48;101055.28;;;11.03;100.00
48077;BME280;33854;57.708;12.008;2023-05-25T03:55:13;101097.41;;;11.16;100.00
48077;BME280;33854;57.708;12.008;2023-05-25T03:57:42;101096.19;;;11.04;100.00
48077;BME280;33854;57.708;12.008;2023-05-25T04:00:08;101112.38;;;11.12;100.00
48077;BME280;33854;57.708;12.008;2023-05-25T04:02:36;101140.13;;;11.15;100.00
48077;BME280;33854;57.708;12.008;2023-05-25T04:05:02;101148.03;;;11.13;100.00
48077;BME280;33854;57.708;12.008;2023-05-25T04:07:27;101158.31;;;11.16;100.00
48077;BME280;33854;57.708;12.008;2023-05-25T04:09:55;101198.25;;;11.20;100.00
48077;BME280;33854;57.708;12.008;2023-05-25T04:12:24;101217.38;;;11.20;100.00
48077;BME280;33854;57.708;12.008;2023-05-25T04:14:49;101228.72;;;11.19;100.00
48077;BME280;33854;57.708;12.008;2023-05-25T04:17:16;101250.44;;;11.21;100.00
48077;BME280;33854;57.708;12.008;2023-05-25T04:19:43;101267.81;;;11.22;100.00
48077;BME280;33854;57.708;12.008;2023-05-25T04:22:08;101289.44;;;11.26;100.00
48077;BME280;33854;57.708;12.008;2023-05-25T04:24:33;101304.13;;;11.28;100.00
48077;BME280;33854;57.708;12.008;2023-05-25T04:26:59;101303.13;;;11.32;100.00
48077;BME280;33854;57.708;12.008;2023-05-25T04:29:26;101310.19;;;11.30;100.00
48077;BME280;33854;57.708;12.008;2023-05-25T04:31:52;101332.53;;;11.37;100.00
48077;BME280;33854;57.708;12.008;2023-05-25T04:34:19;101316.72;;;11.40;100.00
48077;BME280;33854;57.708;12.008;2023-05-25T04:36:45;101314.97;;;11.41;100.00
48077;BME280;33854;57.708;12.008;2023-05-25T04:39:11;101341.13;;;11.39;100.00
48077;BME280;33854;57.708;12.008;2023-05-25T04:41:37;101343.88;;;11.36;100.00
48077;BME280;33854;57.708;12.008;2023-05-25T04:44:03;101358.41;;;11.43;100.00
48077;BME280;33854;57.708;12.008;2023-05-25T04:46:29;101371.41;;;11.45;100.00
48077;BME280;33854;57.708;12.008;2023-05-25T04:48:56;101381.75;;;11.48;100.00
48077;BME280;33854;57.708;12.008;2023-05-25T04:51:22;101398.28;;;11.49;100.00
48077;BME280;33854;57.708;12.008;2023-05-25T04:53:47;101394.66;;;11.53;100.00
48077;BME280;33854;57.708;12.008;2023-05-25T04:56:13;101411.25;;;11.52;100.00
48077;BME280;33854;57.708;12.008;2023-05-25T04:58:38;101436.72;;;11.47;100.00
48077;BME280;33854;57.708;12.008;2023-05-25T05:01:06;101429.06;;;11.42;100.00
48077;BME280;33854;57.708;12.008;2023-05-25T05:03:32;101441.69;;;11.53;100.00
48077;BME280;33854;57.708;12.008;2023-05-25T05:05:57;101414.63;;;11.54;100.00
48077;BME280;33854;57.708;12.008;2023-05-25T05:08:23;101404.25;;;11.52;100.00
48077;BME280;33854;57.708;12.008;2023-05-25T05:10:48;101416.34;;;11.55;100.00
48077;BME280;33854;57.708;12.008;2023-05-25T05:13:14;101407.06;;;11.48;100.00
48077;BME280;33854;57.708;12.008;2023-05-25T05:15:39;101427.34;;;11.63;100.00
48077;BME280;33854;57.708;12.008;2023-05-25T05:18:05;101462.06;;;11.66;100.00
48077;BME280;33854;57.708;12.008;2023-05-25T05:20:32;101472.66;;;11.63;100.00
48077;BME280;33854;57.708;12.008;2023-05-25T05:22:58;101499.44;;;11.70;100.00
48077;BME280;33854;57.708;12.008;2023-05-25T05:25:23;101484.88;;;11.63;100.00
48077;BME280;33854;57.708;12.008;2023-05-25T05:27:49;101503.41;;;11.80;100.00
48077;BME280;33854;57.708;12.008;2023-05-25T05:30:14;101486.81;;;11.81;100.00
48077;BME280;33854;57.708;12.008;2023-05-25T05:32:40;101508.94;;;11.94;100.00
48077;BME280;33854;57.708;12.008;2023-05-25T05:35:05;101507.94;;;11.98;100.00
48077;BME280;33854;57.708;12.008;2023-05-25T05:37:31;101518.78;;;12.11;100.00
48077;BME280;33854;57.708;12.008;2023-05-25T05:39:56;101530.34;;;12.05;100.00
48077;BME280;33854;57.708;12.008;2023-05-25T05:42:22;101533.06;;;12.02;100.00
48077;BME280;33854;57.708;12.008;2023-05-25T05:44:47;101530.22;;;12.08;100.00
48077;BME280;33854;57.708;12.008;2023-05-25T05:47:12;101540.38;;;12.16;100.00
48077;BME280;33854;57.708;12.008;2023-05-25T05:49:38;101543.84;;;12.16;100.00
48077;BME280;33854;57.708;12.008;2023-05-25T05:52:04;101548.22;;;12.16;100.00
48077;BME280;33854;57.708;12.008;2023-05-25T05:54:29;101549.19;;;12.13;100.00
48077;BME280;33854;57.708;12.008;2023-05-25T05:56:55;101540.69;;;12.08;100.00
48077;BME280;33854;57.708;12.008;2023-05-25T05:59:20;101562.16;;;12.16;100.00
48077;BME280;33854;57.708;12.008;2023-05-25T06:01:46;101561.28;;;12.16;100.00
48077;BME280;33854;57.708;12.008;2023-05-25T06:04:11;101557.72;;;12.18;100.00
48077;BME280;33854;57.708;12.008;2023-05-25T06:06:37;101564.13;;;12.31;100.00
48077;BME280;33854;57.708;12.008;2023-05-25T06:09:04;101557.16;;;12.32;100.00
48077;BME280;33854;57.708;12.008;2023-05-25T06:11:32;101567.63;;;12.32;100.00
48077;BME280;33854;57.708;12.008;2023-05-25T06:14:00;101578.69;;;12.38;100.00
48077;BME280;33854;57.708;12.008;2023-05-25T06:16:25;101590.69;;;12.44;100.00
48077;BME280;33854;57.708;12.008;2023-05-25T06:18:51;101593.38;;;12.42;100.00
48077;BME280;33854;57.708;12.008;2023-05-25T06:21:16;101599.28;;;12.47;100.00
48077;BME280;33854;57.708;12.008;2023-05-25T06:23:41;101593.38;;;12.42;100.00
48077;BME280;33854;57.708;12.008;2023-05-25T06:26:07;101604.63;;;12.44;100.00
48077;BME280;33854;57.708;12.008;2023-05-25T06:28:32;101608.69;;;12.51;100.00
48077;BME280;33854;57.708;12.008;2023-05-25T06:30:58;101608.56;;;12.54;100.00
48077;BME280;33854;57.708;12.008;2023-05-25T06:33:23;101622.59;;;12.53;100.00
48077;BME280;33854;57.708;12.008;2023-05-25T06:35:49;101603.59;;;12.48;100.00
48077;BME280;33854;57.708;12.008;2023-05-25T06:38:14;101613.00;;;12.54;100.00
48077;BME280;33854;57.708;12.008;2023-05-25T06:40:40;101605.34;;;12.70;100.00
48077;BME280;33854;57.708;12.008;2023-05-25T06:43:06;101615.59;;;12.96;100.00
48077;BME280;33854;57.708;12.008;2023-05-25T06:45:31;101605.50;;;13.08;100.00
48077;BME280;33854;57.708;12.008;2023-05-25T06:47:56;101605.22;;;13.14;100.00
48077;BME280;33854;57.708;12.008;2023-05-25T06:50:22;101615.97;;;13.29;100.00
48077;BME280;33854;57.708;12.008;2023-05-25T06:52:47;101608.69;;;13.35;100.00
48077;BME280;33854;57.708;12.008;2023-05-25T06:55:13;101606.00;;;13.37;100.00
48077;BME280;33854;57.708;12.008;2023-05-25T06:57:39;101618.13;;;13.39;100.00
48077;BME280;33854;57.708;12.008;2023-05-25T07:00:05;101604.31;;;13.36;100.00
48077;BME280;33854;57.708;12.008;2023-05-25T07:02:33;101613.28;;;13.50;100.00
48077;BME280;33854;57.708;12.008;2023-05-25T07:04:58;101621.63;;;13.40;100.00
48077;BME280;33854;57.708;12.008;2023-05-25T07:07:25;101615.44;;;13.41;100.00
48077;BME280;33854;57.708;12.008;2023-05-25T07:09:50;101615.41;;;13.61;100.00
48077;BME280;33854;57.708;12.008;2023-05-25T07:12:16;101614.38;;;13.65;100.00
48077;BME280;33854;57.708;12.008;2023-05-25T07:14:41;101609.88;;;13.67;100.00
48077;BME280;33854;57.708;12.008;2023-05-25T07:17:06;101618.84;;;13.82;100.00
48077;BME280;33854;57.708;12.008;2023-05-25T07:19:32;101614.59;;;13.79;100.00
48077;BME280;33854;57.708;12.008;2023-05-25T07:21:58;101632.00;;;14.00;100.00
48077;BME280;33854;57.708;12.008;2023-05-25T07:24:23;101615.19;;;13.86;100.00
48077;BME280;33854;57.708;12.008;2023-05-25T07:26:48;101629.66;;;13.94;100.00
48077;BME280;33854;57.708;12.008;2023-05-25T07:29:14;101623.41;;;13.97;100.00
48077;BME280;33854;57.708;12.008;2023-05-25T07:31:39;101626.94;;;13.96;100.00
48077;BME280;33854;57.708;12.008;2023-05-25T07:34:05;101628.69;;;13.77;100.00
48077;BME280;33854;57.708;12.008;2023-05-25T07:36:30;101639.66;;;14.05;100.00
48077;BME280;33854;57.708;12.008;2023-05-25T07:38:56;101638.28;;;14.15;100.00
48077;BME280;33854;57.708;12.008;2023-05-25T07:41:22;101643.97;;;14.24;100.00
48077;BME280;33854;57.708;12.008;2023-05-25T07:43:47;101655.03;;;14.31;100.00
48077;BME280;33854;57.708;12.008;2023-05-25T07:46:13;101656.47;;;14.38;100.00
48077;BME280;33854;57.708;12.008;2023-05-25T07:48:38;101654.28;;;14.48;100.00
48077;BME280;33854;57.708;12.008;2023-05-25T07:51:04;101664.25;;;14.58;100.00
48077;BME280;33854;57.708;12.008;2023-05-25T07:53:29;101664.59;;;14.69;100.00
48077;BME280;33854;57.708;12.008;2023-05-25T07:55:55;101655.94;;;14.67;100.00
48077;BME280;33854;57.708;12.008;2023-05-25T07:58:20;101652.59;;;14.64;100.00
48077;BME280;33854;57.708;12.008;2023-05-25T08:00:46;101665.38;;;14.71;100.00
48077;BME280;33854;57.708;12.008;2023-05-25T08:03:13;101660.91;;;14.73;100.00
48077;BME280;33854;57.708;12.008;2023-05-25T08:05:39;101666.72;;;14.80;100.00
48077;BME280;33854;57.708;12.008;2023-05-25T08:08:05;101671.53;;;14.89;100.00
48077;BME280;33854;57.708;12.008;2023-05-25T08:10:30;101673.84;;;14.95;100.00
48077;BME280;33854;57.708;12.008;2023-05-25T08:12:57;101668.53;;;14.97;100.00
48077;BME280;33854;57.708;12.008;2023-05-25T08:15:23;101678.72;;;15.03;100.00
48077;BME280;33854;57.708;12.008;2023-05-25T08:17:49;101677.63;;;14.90;100.00
48077;BME280;33854;57.708;12.008;2023-05-25T08:20:15;101682.28;;;15.02;100.00
48077;BME280;33854;57.708;12.008;2023-05-25T08:22:41;101675.16;;;15.04;100.00
48077;BME280;33854;57.708;12.008;2023-05-25T08:25:07;101685.53;;;15.07;100.00
48077;BME280;33854;57.708;12.008;2023-05-25T08:27:33;101686.16;;;15.12;100.00
48077;BME280;33854;57.708;12.008;2023-05-25T08:29:58;101675.50;;;15.15;100.00
48077;BME280;33854;57.708;12.008;2023-05-25T08:32:24;101678.75;;;15.37;100.00
48077;BME280;33854;57.708;12.008;2023-05-25T08:34:50;101684.84;;;15.37;100.00
48077;BME280;33854;57.708;12.008;2023-05-25T08:37:15;101707.88;;;15.15;100.00
48077;BME280;33854;57.708;12.008;2023-05-25T08:39:42;101686.88;;;14.79;100.00
48077;BME280;33854;57.708;12.008;2023-05-25T08:42:07;101688.38;;;15.02;100.00
48077;BME280;33854;57.708;12.008;2023-05-25T08:44:36;101692.81;;;15.19;100.00
48077;BME280;33854;57.708;12.008;2023-05-25T08:47:05;101702.41;;;15.37;100.00
48077;BME280;33854;57.708;12.008;2023-05-25T08:49:34;101701.56;;;15.36;100.00
48077;BME280;33854;57.708;12.008;2023-05-25T08:52:01;101690.03;;;15.39;100.00
48077;BME280;33854;57.708;12.008;2023-05-25T08:54:36;101691.44;;;15.63;100.00
48077;BME280;33854;57.708;12.008;2023-05-25T08:57:11;101699.19;;;15.66;100.00
48077;BME280;33854;57.708;12.008;2023-05-25T08:59:45;101707.28;;;15.62;100.00
48077;BME280;33854;57.708;12.008;2023-05-25T09:05:09;101705.69;;;15.59;100.00
48077;BME280;33854;57.708;12.008;2023-05-25T09:07:35;101697.94;;;15.56;100.00
48077;BME280;33854;57.708;12.008;2023-05-25T09:10:01;101707.44;;;15.76;100.00
48077;BME280;33854;57.708;12.008;2023-05-25T09:12:30;101707.72;;;15.87;100.00
48077;BME280;33854;57.708;12.008;2023-05-25T09:14:58;101692.88;;;15.86;100.00
48077;BME280;33854;57.708;12.008;2023-05-25T09:17:25;101696.53;;;15.83;100.00
48077;BME280;33854;57.708;12.008;2023-05-25T09:19:51;101695.28;;;15.39;100.00
48077;BME280;33854;57.708;12.008;2023-05-25T09:22:17;101715.09;;;15.46;100.00
48077;BME280;33854;57.708;12.008;2023-05-25T09:24:43;101709.16;;;15.43;100.00
48077;BME280;33854;57.708;12.008;2023-05-25T09:27:21;101704.06;;;15.57;100.00
48077;BME280;33854;57.708;12.008;2023-05-25T09:29:48;101707.53;;;15.74;100.00
48077;BME280;33854;57.708;12.008;2023-05-25T09:32:13;101702.56;;;15.85;100.00
48077;BME280;33854;57.708;12.008;2023-05-25T09:34:41;101703.72;;;16.13;100.00
48077;BME280;33854;57.708;12.008;2023-05-25T09:37:11;101707.63;;;16.06;100.00
48077;BME280;33854;57.708;12.008;2023-05-25T09:39:39;101704.88;;;16.07;100.00
48077;BME280;33854;57.708;12.008;2023-05-25T09:42:05;101725.47;;;16.16;100.00
48077;BME280;33854;57.708;12.008;2023-05-25T09:44:30;101730.50;;;15.88;100.00
48077;BME280;33854;57.708;12.008;2023-05-25T09:46:56;101717.09;;;15.92;100.00
48077;BME280;33854;57.708;12.008;2023-05-25T09:49:21;101719.81;;;15.91;100.00
48077;BME280;33854;57.708;12.008;2023-05-25T09:51:47;101706.38;;;16.13;100.00
48077;BME280;33854;57.708;12.008;2023-05-25T09:54:13;101712.56;;;16.27;100.00
48077;BME280;33854;57.708;12.008;2023-05-25T09:56:40;101714.47;;;16.41;100.00
48077;BME280;33854;57.708;12.008;2023-05-25T09:59:06;101719.31;;;16.48;100.00
48077;BME280;33854;57.708;12.008;2023-05-25T10:01:32;101723.19;;;16.59;100.00
48077;BME280;33854;57.708;12.008;2023-05-25T10:03:57;101715.50;;;16.85;100.00
48077;BME280;33854;57.708;12.008;2023-05-25T10:06:26;101732.84;;;16.74;100.00
48077;BME280;33854;57.708;12.008;2023-05-25T10:08:56;101735.97;;;16.01;100.00
48077;BME280;33854;57.708;12.008;2023-05-25T10:11:23;101731.16;;;16.09;100.00
48077;BME280;33854;57.708;12.008;2023-05-25T10:13:49;101737.72;;;16.33;100.00
48077;BME280;33854;57.708;12.008;2023-05-25T10:16:23;101743.34;;;16.42;100.00
48077;BME280;33854;57.708;12.008;2023-05-25T10:19:03;101750.31;;;15.95;100.00
48077;BME280;33854;57.708;12.008;2023-05-25T10:21:30;101750.66;;;15.72;100.00
48077;BME280;33854;57.708;12.008;2023-05-25T10:24:04;101788.34;;;15.72;100.00
48077;BME280;33854;57.708;12.008;2023-05-25T10:26:33;101767.72;;;15.98;100.00
48077;BME280;33854;57.708;12.008;2023-05-25T10:29:01;101756.88;;;16.04;100.00
48077;BME280;33854;57.708;12.008;2023-05-25T10:31:30;101771.81;;;16.03;100.00
48077;BME280;33854;57.708;12.008;2023-05-25T10:33:57;101746.53;;;15.83;100.00
48077;BME280;33854;57.708;12.008;2023-05-25T10:36:24;101745.91;;;15.78;100.00
48077;BME280;33854;57.708;12.008;2023-05-25T10:38:50;101763.38;;;15.96;100.00
48077;BME280;33854;57.708;12.008;2023-05-25T10:41:17;101772.53;;;16.07;100.00
48077;BME280;33854;57.708;12.008;2023-05-25T10:43:43;101777.66;;;15.75;100.00
48077;BME280;33854;57.708;12.008;2023-05-25T10:46:09;101760.00;;;15.77;100.00
48077;BME280;33854;57.708;12.008;2023-05-25T10:48:44;101777.16;;;16.02;100.00
48077;BME280;33854;57.708;12.008;2023-05-25T10:51:10;101769.25;;;16.02;100.00
48077;BME280;33854;57.708;12.008;2023-05-25T10:53:36;101764.00;;;15.84;100.00
48077;BME280;33854;57.708;12.008;2023-05-25T10:56:03;101761.47;;;16.16;100.00
48077;BME280;33854;57.708;12.008;2023-05-25T10:58:30;101741.19;;;16.18;100.00
48077;BME280;33854;57.708;12.008;2023-05-25T11:01:06;101748.31;;;16.16;100.00
48077;BME280;33854;57.708;12.008;2023-05-25T11:06:20;101756.63;;;16.41;100.00
48077;BME280;33854;57.708;12.008;2023-05-25T11:08:56;101759.69;;;16.49;100.00
48077;BME280;33854;57.708;12.008;2023-05-25T11:14:22;101755.25;;;16.34;100.00
48077;BME280;33854;57.708;12.008;2023-05-25T11:17:07;101776.63;;;16.28;100.00
48077;BME280;33854;57.708;12.008;2023-05-25T11:19:49;101760.13;;;16.24;100.00
48077;BME280;33854;57.708;12.008;2023-05-25T11:22:20;101767.03;;;15.94;100.00
48077;BME280;33854;57.708;12.008;2023-05-25T11:24:50;101756.19;;;16.00;100.00
48077;BME280;33854;57.708;12.008;2023-05-25T11:27:23;101761.16;;;16.55;100.00
48077;BME280;33854;57.708;12.008;2023-05-25T11:29:50;101754.25;;;16.52;100.00
48077;BME280;33854;57.708;12.008;2023-05-25T11:32:16;101762.03;;;16.55;100.00
48077;BME280;33854;57.708;12.008;2023-05-25T11:34:41;101760.69;;;16.64;100.00
48077;BME280;33854;57.708;12.008;2023-05-25T11:37:16;101761.84;;;16.74;100.00
48077;BME280;33854;57.708;12.008;2023-05-25T11:39:49;101763.53;;;16.90;100.00
48077;BME280;33854;57.708;12.008;2023-05-25T11:42:24;101740.31;;;16.50;100.00
48077;BME280;33854;57.708;12.008;2023-05-25T11:44:50;101756.13;;;16.50;100.00
48077;BME280;33854;57.708;12.008;2023-05-25T11:47:16;101766.81;;;16.95;100.00
48077;BME280;33854;57.708;12.008;2023-05-25T11:49:47;101786.91;;;17.28;100.00
48077;BME280;33854;57.708;12.008;2023-05-25T11:52:15;101765.16;;;17.24;100.00
48077;BME280;33854;57.708;12.008;2023-05-25T11:54:41;101783.00;;;17.19;100.00
48077;BME280;33854;57.708;12.008;2023-05-25T11:57:18;101768.22;;;17.17;100.00
48077;BME280;33854;57.708;12.008;2023-05-25T11:59:52;101768.03;;;17.20;100.00
48077;BME280;33854;57.708;12.008;2023-05-25T12:02:18;101770.72;;;17.34;100.00
48077;BME280;33854;57.708;12.008;2023-05-25T12:04:58;101780.13;;;17.53;100.00
48077;BME280;33854;57.708;12.008;2023-05-25T12:07:26;101791.34;;;16.65;100.00
48077;BME280;33854;57.708;12.008;2023-05-25T12:12:42;101792.16;;;17.43;100.00
48077;BME280;33854;57.708;12.008;2023-05-25T12:15:13;101792.28;;;17.42;100.00
48077;BME280;33854;57.708;12.008;2023-05-25T12:17:40;101777.75;;;17.64;100.00
48077;BME280;33854;57.708;12.008;2023-05-25T12:20:09;101781.03;;;17.68;100.00
48077;BME280;33854;57.708;12.008;2023-05-25T12:22:37;101771.38;;;17.83;100.00
48077;BME280;33854;57.708;12.008;2023-05-25T12:25:07;101763.25;;;17.86;100.00
48077;BME280;33854;57.708;12.008;2023-05-25T12:27:33;101764.81;;;18.18;100.00
48077;BME280;33854;57.708;12.008;2023-05-25T12:29:58;101783.47;;;17.87;100.00
48077;BME280;33854;57.708;12.008;2023-05-25T12:32:24;101779.81;;;17.44;100.00
48077;BME280;33854;57.708;12.008;2023-05-25T12:34:50;101782.69;;;17.71;100.00
48077;BME280;33854;57.708;12.008;2023-05-25T12:37:20;101760.00;;;18.39;100.00
48077;BME280;33854;57.708;12.008;2023-05-25T12:39:46;101745.09;;;18.52;100.00
48077;BME280;33854;57.708;12.008;2023-05-25T12:42:13;101770.97;;;18.61;100.00
48077;BME280;33854;57.708;12.008;2023-05-25T12:44:39;101770.69;;;18.92;100.00